Time;durP1;ratioP1;P1;durP2;ratioP2;P2;SDS_P1;SDS_P2;PMS_P1;PMS_P2;Temp;Humidity;BMP_temperature;BMP_pressure;BME280_temperature;BME280_humidity;BME280_pressure;Samples;Min_cycle;Max_cycle;Signal;HPM_P1;HPM_P2
2022/01/10 00:01:56;;;;;;;8.45;5.25;;;4.90;99.90;;;;;;4978635;28;20230;-86
2022/01/10 00:04:23;;;;;;;9.43;5.70;;;4.70;99.90;;;;;;4977772;28;20293;-85
2022/01/10 00:06:53;;;;;;;12.07;6.35;;;5.00;99.90;;;;;;4978276;28;20215;-86
2022/01/10 00:09:20;;;;;;;9.13;5.50;;;5.00;99.90;;;;;;4978672;28;20245;-85
2022/01/10 00:11:47;;;;;;;8.55;5.15;;;5.00;99.90;;;;;;4977684;28;20230;-86
2022/01/10 00:14:16;;;;;;;9.10;5.43;;;4.70;99.90;;;;;;4978556;28;20260;-87
2022/01/10 00:16:45;;;;;;;8.23;5.25;;;4.70;99.90;;;;;;4977202;28;20299;-87
2022/01/10 04:35:19;;;;;;;8.75;5.47;;;5.60;99.90;;;;;;999351;23;21341;-88
2022/01/10 06:21:01;;;;;;;16.48;8.55;;;4.90;99.90;;;;;;4809789;23;20714;-87
2022/01/10 06:23:29;;;;;;;16.60;8.93;;;4.80;99.90;;;;;;4984880;28;20232;-87
2022/01/10 06:25:56;;;;;;;18.42;8.73;;;5.20;99.90;;;;;;4985516;28;20229;-85
2022/01/10 06:28:23;;;;;;;18.75;10.15;;;5.00;99.90;;;;;;4985413;28;20218;-87
2022/01/10 06:30:50;;;;;;;17.92;10.02;;;4.70;99.90;;;;;;4982690;28;20267;-87
2022/01/10 06:33:17;;;;;;;14.00;8.70;;;4.60;99.90;;;;;;4982142;28;20301;-87
2022/01/10 06:35:44;;;;;;;21.13;9.93;;;4.80;99.90;;;;;;4981977;28;20297;-87
2022/01/10 06:38:13;;;;;;;19.95;10.77;;;4.80;99.90;;;;;;4989971;28;20232;-87
2022/01/10 06:40:39;;;;;;;13.57;8.70;;;5.20;99.90;;;;;;4987864;28;20254;-87
2022/01/10 06:43:06;;;;;;;17.30;10.25;;;5.10;99.90;;;;;;4980401;28;20282;-86
2022/01/10 06:45:34;;;;;;;23.58;10.07;;;5.50;99.90;;;;;;4979509;28;20209;-88
2022/01/10 06:48:01;;;;;;;18.23;11.00;;;5.50;99.90;;;;;;4979527;28;20238;-87
2022/01/10 06:50:28;;;;;;;20.58;10.32;;;5.00;99.90;;;;;;4979280;28;20253;-87
2022/01/10 06:52:57;;;;;;;19.48;10.13;;;5.40;99.90;;;;;;4979826;28;20225;-86
2022/01/10 06:55:25;;;;;;;20.65;9.82;;;5.40;99.90;;;;;;4983036;28;20217;-85
2022/01/10 06:57:53;;;;;;;13.27;8.27;;;5.50;99.90;;;;;;4983475;28;20277;-86
2022/01/10 07:00:21;;;;;;;21.67;11.20;;;5.30;99.90;;;;;;4980826;28;20320;-86
2022/01/10 07:02:48;;;;;;;21.65;10.10;;;5.00;99.90;;;;;;4979600;28;20193;-86
2022/01/10 07:05:14;;;;;;;22.10;10.00;;;4.90;99.90;;;;;;4979763;28;20253;-85
2022/01/10 07:07:41;;;;;;;19.20;9.52;;;5.00;99.90;;;;;;4982418;28;20298;-86
2022/01/10 07:10:09;;;;;;;20.38;11.88;;;5.20;99.90;;;;;;4979959;28;20249;-86
2022/01/10 07:12:37;;;;;;;16.55;10.07;;;5.30;99.90;;;;;;4980473;28;20589;-86
2022/01/10 07:15:05;;;;;;;21.90;11.15;;;4.90;99.90;;;;;;4982696;28;20190;-87
2022/01/10 07:17:33;;;;;;;18.45;10.73;;;5.20;99.90;;;;;;4982031;28;20209;-86
2022/01/10 07:20:00;;;;;;;23.88;11.60;;;5.30;99.90;;;;;;4982713;28;20238;-88
2022/01/10 07:32:48;;;;;;;21.95;12.05;;;5.40;99.90;;;;;;4809227;29;20224;-89
2022/01/10 07:35:31;;;;;;;23.40;11.45;;;5.30;99.90;;;;;;4849709;29;20634;-90
2022/01/10 07:38:35;;;;;;;31.10;12.57;;;5.20;99.90;;;;;;4851695;29;20321;-86
2022/01/10 07:41:03;;;;;;;23.17;11.65;;;5.20;99.90;;;;;;4904880;29;20294;-87
2022/01/10 07:46:32;;;;;;;21.67;10.00;;;5.10;99.90;;;;;;4991585;28;20631;-87
2022/01/10 07:49:01;;;;;;;22.52;11.07;;;5.00;99.90;;;;;;4998008;28;20247;-88
2022/01/10 07:51:28;;;;;;;22.67;12.65;;;5.20;99.90;;;;;;4989893;28;20202;-88
2022/01/10 07:54:18;;;;;;;23.58;11.18;;;5.20;99.90;;;;;;4996869;28;20266;-88
2022/01/10 07:56:47;;;;;;;22.02;10.23;;;4.70;99.90;;;;;;4987308;28;20621;-88
2022/01/10 07:59:14;;;;;;;16.88;9.93;;;4.90;99.90;;;;;;4988161;28;20297;-89
2022/01/10 08:02:11;;;;;;;20.17;11.20;;;5.40;99.90;;;;;;4987596;28;20218;-87
2022/01/10 08:08:42;;;;;;;20.08;10.60;;;5.30;99.90;;;;;;4981190;28;20305;-88
2022/01/10 08:11:59;;;;;;;17.23;8.57;;;5.10;99.90;;;;;;4996016;28;20215;-87
2022/01/10 08:14:35;;;;;;;17.42;9.73;;;5.20;99.90;;;;;;4995879;28;20206;-87
2022/01/10 08:17:36;;;;;;;16.50;9.15;;;5.10;99.90;;;;;;4992725;28;20208;-88
2022/01/10 08:23:19;;;;;;;17.63;9.65;;;4.80;99.90;;;;;;4976894;28;20664;-88
2022/01/10 08:25:47;;;;;;;14.70;8.43;;;5.00;99.90;;;;;;4993329;28;20212;-88
2022/01/10 08:34:12;;;;;;;22.67;12.07;;;5.00;99.90;;;;;;4932087;28;20243;-88
2022/01/10 08:37:30;;;;;;;17.98;10.50;;;5.00;99.90;;;;;;4988120;28;20222;-87
2022/01/10 08:40:51;;;;;;;18.77;12.25;;;4.90;99.90;;;;;;4989666;28;20249;-87
2022/01/10 08:43:48;;;;;;;23.00;12.27;;;5.20;99.90;;;;;;4976187;28;20211;-87
2022/01/10 08:49:57;;;;;;;17.75;11.13;;;5.20;99.90;;;;;;4976821;23;20231;-88
2022/01/10 09:12:41;;;;;;;15.95;10.20;;;5.50;99.90;;;;;;4894179;29;20224;-86
2022/01/10 09:15:25;;;;;;;20.77;11.45;;;5.50;99.90;;;;;;4938068;28;20220;-87
2022/01/10 09:18:09;;;;;;;22.92;11.13;;;5.40;99.90;;;;;;4994911;28;20258;-89
2022/01/10 09:20:36;;;;;;;21.92;11.55;;;5.40;99.90;;;;;;5009187;23;20240;-86
2022/01/10 09:23:04;;;;;;;21.85;12.48;;;5.50;99.90;;;;;;4991293;28;20203;-86
2022/01/10 10:14:27;;;;;;;20.80;12.77;;;6.00;99.90;;;;;;4867803;29;20213;-87
2022/01/10 10:27:40;;;;;;;23.38;12.40;;;5.90;99.90;;;;;;4810592;29;20358;-87
2022/01/10 10:33:40;;;;;;;18.67;10.73;;;5.70;99.90;;;;;;4886707;29;20222;-88
2022/01/10 10:44:55;;;;;;;20.20;13.75;;;5.70;99.90;;;;;;2041852;23;20240;-87
2022/01/10 12:14:33;;;;;;;19.60;12.07;;;6.80;99.90;;;;;;4977671;28;20226;-88
2022/01/10 12:17:07;;;;;;;21.17;10.68;;;6.70;99.90;;;;;;4988344;28;20306;-88
2022/01/10 12:19:35;;;;;;;18.95;11.15;;;6.70;99.90;;;;;;4988326;28;20247;-87
2022/01/10 12:30:04;;;;;;;16.52;11.63;;;6.70;99.90;;;;;;4943096;29;20227;-88
2022/01/10 12:32:48;;;;;;;16.45;8.93;;;7.00;99.90;;;;;;4943912;29;20229;-88
2022/01/10 12:35:19;;;;;;;20.95;11.02;;;7.10;99.90;;;;;;4945206;29;20231;-88
2022/01/10 12:37:54;;;;;;;19.08;10.95;;;6.90;99.90;;;;;;4945474;29;20209;-88
2022/01/10 12:40:23;;;;;;;20.35;10.15;;;7.20;99.90;;;;;;4945447;29;20213;-88
2022/01/10 12:43:00;;;;;;;27.50;11.88;;;7.30;99.90;;;;;;4944547;29;20233;-90
2022/01/10 12:45:35;;;;;;;16.95;11.57;;;7.20;99.90;;;;;;4945218;29;20217;-87
2022/01/10 12:48:02;;;;;;;17.92;9.77;;;7.00;99.90;;;;;;4943104;29;20211;-87
2022/01/10 12:50:29;;;;;;;14.23;8.85;;;7.10;99.90;;;;;;4944376;29;20252;-89
2022/01/10 12:53:09;;;;;;;17.67;11.07;;;7.00;99.90;;;;;;5012795;23;20264;-90
2022/01/10 12:56:01;;;;;;;20.90;10.73;;;6.90;99.90;;;;;;5000192;28;20214;-88
2022/01/10 12:58:34;;;;;;;23.67;11.55;;;6.90;99.90;;;;;;5016247;28;20203;-88
2022/01/10 13:01:11;;;;;;;23.13;11.15;;;7.00;99.90;;;;;;5020643;28;20219;-88
2022/01/10 13:03:39;;;;;;;16.17;9.75;;;6.70;99.90;;;;;;5001002;28;20188;-86
2022/01/10 13:06:10;;;;;;;16.95;10.52;;;7.10;99.90;;;;;;4998105;28;20258;-87
2022/01/10 13:08:41;;;;;;;19.42;12.02;;;6.90;99.90;;;;;;4988464;28;20214;-87
2022/01/10 13:11:14;;;;;;;20.83;11.43;;;6.80;99.90;;;;;;4993038;28;20227;-88
2022/01/10 13:14:07;;;;;;;22.15;11.32;;;6.80;99.90;;;;;;4998808;28;20223;-88
2022/01/10 13:16:36;;;;;;;19.77;11.85;;;7.00;99.90;;;;;;4999001;28;20219;-88
2022/01/10 13:19:06;;;;;;;22.63;12.60;;;7.00;99.90;;;;;;4987416;28;20212;-87
2022/01/10 13:25:08;;;;;;;32.55;11.35;;;6.60;99.90;;;;;;4941042;28;20199;-88
2022/01/10 13:27:49;;;;;;;20.95;12.02;;;6.90;99.90;;;;;;4983347;28;20738;-89
2022/01/10 13:30:32;;;;;;;24.60;13.45;;;6.90;99.90;;;;;;4988306;28;20225;-88
2022/01/10 13:33:07;;;;;;;17.73;11.50;;;6.80;99.90;;;;;;4984875;28;20232;-88
2022/01/10 13:35:36;;;;;;;16.88;11.05;;;6.80;99.90;;;;;;4987258;28;20637;-87
2022/01/10 13:38:11;;;;;;;16.80;11.63;;;6.90;99.90;;;;;;4988671;28;20220;-87
2022/01/10 13:40:43;;;;;;;22.88;12.05;;;6.80;99.90;;;;;;4988398;28;20567;-87
2022/01/10 13:43:12;;;;;;;23.73;13.48;;;7.00;99.90;;;;;;4994781;28;20239;-87
2022/01/10 13:45:43;;;;;;;22.45;12.43;;;6.60;99.90;;;;;;4989063;28;20243;-87
2022/01/10 13:48:16;;;;;;;19.38;11.48;;;6.90;99.90;;;;;;4986521;28;20199;-87
2022/01/10 13:50:46;;;;;;;22.98;12.25;;;7.10;99.90;;;;;;4987983;28;20216;-86
2022/01/10 13:53:17;;;;;;;21.55;12.55;;;7.20;99.90;;;;;;4986268;28;20255;-87
2022/01/10 13:55:48;;;;;;;24.63;12.63;;;7.00;99.90;;;;;;4987627;28;20283;-86
2022/01/10 13:58:33;;;;;;;22.77;11.63;;;6.90;99.90;;;;;;4990620;28;20215;-87
2022/01/10 14:01:06;;;;;;;25.10;14.38;;;7.20;99.90;;;;;;4986949;28;20196;-87
2022/01/10 14:03:36;;;;;;;19.15;10.23;;;7.30;99.90;;;;;;4987075;28;20239;-88
2022/01/10 14:06:07;;;;;;;29.25;11.30;;;7.30;99.90;;;;;;4987289;28;20204;-87
2022/01/10 14:08:35;;;;;;;22.58;11.77;;;6.80;99.90;;;;;;4987142;28;20620;-86
2022/01/10 14:11:02;;;;;;;24.48;12.32;;;7.20;99.90;;;;;;4985765;28;20283;-87
2022/01/10 14:13:30;;;;;;;22.65;12.13;;;7.00;99.90;;;;;;4984908;28;20307;-87
2022/01/10 14:19:33;;;;;;;19.70;11.20;;;7.00;99.90;;;;;;4982505;28;20202;-87
2022/01/10 14:22:21;;;;;;;;;;;;;;;;;;;;;
2022/01/10 14:24:54;;;;;;;26.85;13.60;;;6.90;99.90;;;;;;4983662;28;20294;-88
2022/01/10 14:27:30;;;;;;;21.05;13.13;;;6.60;99.90;;;;;;4983990;28;20212;-88
2022/01/10 14:32:47;;;;;;;31.42;13.27;;;6.60;99.90;;;;;;4982691;28;20215;-87
2022/01/10 14:38:40;;;;;;;21.92;11.32;;;6.70;99.90;;;;;;4944511;28;20210;-88
2022/01/10 14:41:22;;;;;;;22.73;12.32;;;6.80;99.90;;;;;;4983955;28;20210;-89
2022/01/10 14:43:49;;;;;;;20.95;11.40;;;6.90;99.90;;;;;;4984977;28;20252;-86
2022/01/10 14:46:22;;;;;;;26.75;12.52;;;6.80;99.90;;;;;;4984668;28;20295;-86
2022/01/10 14:48:49;;;;;;;17.55;10.75;;;6.60;99.90;;;;;;4985660;28;20502;-88
2022/01/10 14:51:16;;;;;;;21.25;10.65;;;6.40;99.90;;;;;;4986307;28;20299;-87
2022/01/10 14:53:45;;;;;;;19.42;12.80;;;6.70;99.90;;;;;;4984999;28;20223;-87
2022/01/10 14:56:12;;;;;;;20.33;12.57;;;6.90;99.90;;;;;;4991823;28;20211;-86
2022/01/10 14:58:40;;;;;;;17.55;12.70;;;7.00;99.90;;;;;;4997651;28;20216;-85
2022/01/10 15:01:07;;;;;;;24.35;13.48;;;6.90;99.90;;;;;;4994163;28;20208;-87
2022/01/10 15:03:35;;;;;;;22.13;12.63;;;6.70;99.90;;;;;;4992696;28;20258;-88
2022/01/10 15:06:02;;;;;;;18.60;10.70;;;7.20;99.90;;;;;;4997535;28;20195;-87
2022/01/10 15:09:14;;;;;;;23.17;13.43;;;6.90;99.90;;;;;;4985530;28;20755;-87
2022/01/10 15:19:11;;;;;;;;;;;;;;;;;;;;;
2022/01/10 15:28:07;;;;;;;22.02;11.23;;;6.80;99.90;;;;;;4963754;28;20195;-87
2022/01/10 15:30:43;;;;;;;18.00;11.25;;;6.60;99.90;;;;;;4986952;28;20247;-88
2022/01/10 15:33:15;;;;;;;20.50;12.50;;;6.90;99.90;;;;;;4983641;28;20235;-88
2022/01/10 15:35:47;;;;;;;18.30;12.55;;;7.10;99.90;;;;;;4985029;28;20207;-87
2022/01/10 15:38:14;;;;;;;22.60;13.25;;;6.60;99.90;;;;;;4986138;28;20577;-88
2022/01/10 15:40:59;;;;;;;22.15;13.23;;;6.60;99.90;;;;;;4995535;28;20223;-87
2022/01/10 15:51:07;;;;;;;19.90;11.95;;;6.80;99.90;;;;;;4992780;28;20541;-87
2022/01/10 15:53:54;;;;;;;28.02;14.85;;;6.70;99.90;;;;;;4981790;28;20239;-87
2022/01/10 16:03:34;;;;;;;18.33;11.88;;;6.50;99.90;;;;;;4778845;30;20347;-87
2022/01/10 16:06:05;;;;;;;25.88;14.70;;;6.70;99.90;;;;;;4882863;29;20217;-86
2022/01/10 16:08:34;;;;;;;19.25;13.35;;;6.60;99.90;;;;;;4943839;29;20283;-87
2022/01/10 16:11:02;;;;;;;21.08;13.90;;;6.70;99.90;;;;;;4981756;28;20208;-87
2022/01/10 16:13:29;;;;;;;20.60;12.25;;;6.70;99.90;;;;;;4989700;28;20231;-86
2022/01/10 16:16:16;;;;;;;23.98;11.95;;;6.60;99.90;;;;;;4988081;28;20216;-87
2022/01/10 16:18:51;;;;;;;19.35;12.43;;;6.70;99.90;;;;;;4986219;28;20188;-86
2022/01/10 16:21:18;;;;;;;27.20;13.23;;;6.50;99.90;;;;;;4987109;28;20613;-87
2022/01/10 16:23:51;;;;;;;30.23;15.15;;;6.30;99.90;;;;;;4984860;28;20220;-87
2022/01/10 16:26:20;;;;;;;24.92;14.75;;;6.30;99.90;;;;;;4986152;28;20620;-86
2022/01/10 16:28:47;;;;;;;19.90;12.13;;;6.50;99.90;;;;;;4994586;28;20298;-87
2022/01/10 16:31:28;;;;;;;28.80;13.27;;;6.50;99.90;;;;;;4992151;28;20246;-88
2022/01/10 16:33:56;;;;;;;25.55;13.70;;;6.20;99.90;;;;;;4990789;28;20191;-87
2022/01/10 16:36:25;;;;;;;22.05;13.45;;;6.40;99.90;;;;;;4991302;28;20232;-87
2022/01/10 16:38:55;;;;;;;24.13;13.15;;;6.10;99.90;;;;;;4988885;28;20208;-87
2022/01/10 16:41:25;;;;;;;22.08;12.88;;;6.40;99.90;;;;;;4991663;28;20207;-87
2022/01/10 16:43:55;;;;;;;19.92;12.90;;;6.00;99.90;;;;;;4989490;28;20252;-88
2022/01/10 16:46:22;;;;;;;20.58;13.20;;;6.40;99.90;;;;;;4990769;28;20212;-87
2022/01/10 16:48:52;;;;;;;21.63;13.05;;;6.40;99.90;;;;;;4991536;28;20219;-88
2022/01/10 16:51:21;;;;;;;26.27;12.75;;;6.10;99.90;;;;;;4994233;28;20223;-87
2022/01/10 16:54:07;;;;;;;;;;;;;;;;;;;;;
2022/01/10 16:56:37;;;;;;;18.83;12.25;;;6.40;99.90;;;;;;4987210;28;20672;-87
2022/01/10 16:59:04;;;;;;;25.33;13.88;;;5.90;99.90;;;;;;4989272;28;20242;-88
2022/01/10 17:01:31;;;;;;;25.38;12.75;;;6.10;99.90;;;;;;4989462;28;20236;-88
2022/01/10 17:03:59;;;;;;;22.58;14.65;;;6.00;99.90;;;;;;4988901;28;20228;-88
2022/01/10 17:06:26;;;;;;;27.55;14.02;;;5.60;99.90;;;;;;4986928;28;20212;-89
2022/01/10 17:08:53;;;;;;;28.65;14.93;;;6.00;99.90;;;;;;4987605;28;20270;-87
2022/01/10 17:11:20;;;;;;;26.55;14.05;;;5.70;99.90;;;;;;4985843;28;20219;-88
2022/01/10 17:13:52;;;;;;;28.50;14.93;;;6.20;99.90;;;;;;4986857;28;20660;-86
2022/01/10 17:16:21;;;;;;;28.05;14.45;;;6.20;99.90;;;;;;4988839;28;20187;-88
2022/01/10 17:18:48;;;;;;;39.50;16.75;;;6.10;99.90;;;;;;4986734;28;20211;-86
2022/01/10 17:21:29;;;;;;;24.38;15.60;;;6.20;99.90;;;;;;4991333;28;20249;-89
2022/01/10 17:23:56;;;;;;;28.98;14.98;;;6.30;99.90;;;;;;4992257;28;20250;-87
2022/01/10 17:26:26;;;;;;;24.98;13.50;;;6.10;99.90;;;;;;4986906;28;20249;-87
2022/01/10 17:28:55;;;;;;;23.95;14.27;;;6.50;99.90;;;;;;4985577;28;20216;-87
2022/01/10 17:31:22;;;;;;;22.02;13.63;;;6.00;99.90;;;;;;4985615;28;20678;-87
2022/01/10 17:33:49;;;;;;;21.45;13.43;;;6.40;99.90;;;;;;4987441;28;20322;-87
2022/01/10 17:36:21;;;;;;;30.13;14.10;;;6.10;99.90;;;;;;4985444;28;20211;-87
2022/01/10 17:38:49;;;;;;;24.10;14.00;;;6.50;99.90;;;;;;4986778;28;20215;-87
2022/01/10 17:41:25;;;;;;;25.20;13.55;;;6.50;99.90;;;;;;4987277;28;20211;-88
2022/01/10 17:43:52;;;;;;;23.15;14.07;;;6.40;99.90;;;;;;4988588;28;20316;-88
2022/01/10 17:46:20;;;;;;;25.67;14.55;;;6.10;99.90;;;;;;4988770;28;20225;-87
2022/01/10 17:48:49;;;;;;;24.45;14.05;;;6.00;99.90;;;;;;4987857;28;20257;-87
2022/01/10 17:51:23;;;;;;;23.58;13.15;;;5.80;99.90;;;;;;4986323;28;20239;-87
2022/01/10 17:53:52;;;;;;;23.83;14.68;;;5.80;99.90;;;;;;4991510;28;20238;-87
2022/01/10 17:56:23;;;;;;;25.52;14.95;;;5.70;99.90;;;;;;4988487;28;20222;-87
2022/01/10 17:58:55;;;;;;;24.45;14.60;;;5.60;99.90;;;;;;4998757;28;20199;-88
2022/01/10 18:01:26;;;;;;;27.70;15.60;;;5.50;99.90;;;;;;4999805;28;20295;-88
2022/01/10 18:03:55;;;;;;;24.48;15.35;;;5.50;99.90;;;;;;4995166;28;20224;-87
2022/01/10 18:06:25;;;;;;;27.88;15.65;;;5.50;99.90;;;;;;5000102;28;20212;-87
2022/01/10 18:09:10;;;;;;;28.52;15.93;;;5.20;99.90;;;;;;4996766;28;20645;-88
2022/01/10 18:11:37;;;;;;;21.60;14.20;;;5.30;99.90;;;;;;4986505;28;20238;-88
2022/01/10 18:14:06;;;;;;;25.45;15.25;;;5.60;99.90;;;;;;4993583;28;20276;-88
2022/01/10 18:16:34;;;;;;;21.10;13.35;;;5.50;99.90;;;;;;4987413;28;20211;-88
2022/01/10 18:19:01;;;;;;;26.02;13.25;;;5.50;99.90;;;;;;4988669;28;20212;-87
2022/01/10 18:21:28;;;;;;;22.98;15.77;;;5.50;99.90;;;;;;4987558;28;20247;-87
2022/01/10 21:35:26;;;;;;;30.40;15.52;;;4.80;99.90;;;;;;4939883;29;20231;-86
2022/01/10 21:38:03;;;;;;;24.27;14.07;;;4.90;99.90;;;;;;4876981;29;20284;-85
2022/01/10 21:40:30;;;;;;;31.90;14.00;;;4.90;99.90;;;;;;4943660;29;20250;-86
2022/01/10 21:49:40;;;;;;;26.48;13.52;;;4.90;99.90;;;;;;4949373;29;20205;-86
